createdAt,value
2023-03-20T00:00:34.262Z,101556.22
2023-03-20T00:03:02.532Z,101561.06
2023-03-20T00:05:31.996Z,101563.81
2023-03-20T00:08:00.136Z,101569.41
2023-03-20T00:10:36.937Z,101572.91
2023-03-20T00:13:06.618Z,101575.00
2023-03-20T00:15:38.551Z,101575.00
2023-03-20T00:18:16.556Z,101587.09
2023-03-20T00:20:44.506Z,101580.84
2023-03-20T00:23:12.390Z,101583.72
2023-03-20T00:25:43.237Z,101586.34
2023-03-20T00:28:38.998Z,101588.31
2023-03-20T00:31:15.260Z,101599.53
2023-03-20T00:33:43.173Z,101586.84
2023-03-20T00:36:11.233Z,101596.91
2023-03-20T00:38:41.416Z,101588.69
2023-03-20T00:41:23.189Z,101588.59
2023-03-20T00:43:53.351Z,101585.19
2023-03-20T00:46:21.295Z,101589.81
2023-03-20T00:48:49.881Z,101599.78
2023-03-20T00:51:18.304Z,101597.16
2023-03-20T00:53:46.141Z,101590.78
2023-03-20T00:56:31.959Z,101592.44
2023-03-20T00:59:01.470Z,101583.56
2023-03-20T01:01:30.286Z,101574.47
2023-03-20T01:03:58.154Z,101578.09
2023-03-20T01:06:25.975Z,101571.72
2023-03-20T01:08:53.854Z,101570.84
2023-03-20T01:11:24.876Z,101569.88
2023-03-20T01:13:54.194Z,101566.25
2023-03-20T01:16:24.487Z,101559.91
2023-03-20T01:18:52.856Z,101558.28
2023-03-20T01:21:21.852Z,101554.56
2023-03-20T01:23:51.267Z,101566.41
2023-03-20T01:26:25.154Z,101567.28
2023-03-20T01:28:54.404Z,101572.88
2023-03-20T01:31:22.324Z,101555.78
2023-03-20T01:33:50.440Z,101560.38
2023-03-20T01:36:22.559Z,101548.44
2023-03-20T01:38:56.818Z,101558.53
2023-03-20T01:41:27.566Z,101554.16
2023-03-20T01:43:56.790Z,101560.66
2023-03-20T01:46:26.595Z,101553.44
2023-03-20T01:49:10.318Z,101537.97
2023-03-20T01:51:38.196Z,101546.44
2023-03-20T01:54:16.382Z,101546.31
2023-03-20T01:56:57.689Z,101556.63
2023-03-20T01:59:30.682Z,101556.50
2023-03-20T02:01:59.363Z,101558.50
2023-03-20T02:04:32.100Z,101563.97
2023-03-20T02:07:08.841Z,101567.72
2023-03-20T02:09:41.098Z,101559.75
2023-03-20T02:12:14.410Z,101565.22
2023-03-20T02:14:45.306Z,101562.47
2023-03-20T02:17:22.543Z,101572.66
2023-03-20T02:20:08.092Z,101570.81
2023-03-20T02:23:09.068Z,101574.53
2023-03-20T02:26:13.664Z,101557.66
2023-03-20T02:29:16.828Z,101547.88
2023-03-20T02:32:21.785Z,101554.09
2023-03-20T02:35:06.456Z,101551.38
2023-03-20T02:37:59.557Z,101551.47
2023-03-20T02:40:34.976Z,101548.13
2023-03-20T02:43:10.108Z,101549.88
2023-03-20T02:45:46.825Z,101546.25
2023-03-20T02:48:28.640Z,101556.44
2023-03-20T02:51:02.090Z,101573.00
2023-03-20T02:53:48.614Z,101573.97
2023-03-20T02:56:23.379Z,101577.09
2023-03-20T02:58:56.065Z,101573.38
2023-03-20T03:01:31.748Z,101578.09
2023-03-20T03:04:03.741Z,101573.47
2023-03-20T03:06:33.456Z,101567.34
2023-03-20T03:09:07.076Z,101571.72
2023-03-20T03:11:40.075Z,101572.72
2023-03-20T03:14:09.198Z,101584.75
2023-03-20T03:16:39.451Z,101589.25
2023-03-20T03:19:11.128Z,101581.91
2023-03-20T03:21:41.502Z,101574.69
2023-03-20T03:24:39.965Z,101551.91
2023-03-20T03:27:18.486Z,101534.75
2023-03-20T03:29:52.454Z,101532.25
2023-03-20T03:32:27.369Z,101534.09
2023-03-20T03:34:56.654Z,101542.53
2023-03-20T03:37:35.282Z,101547.19
2023-03-20T03:40:14.223Z,101550.91
2023-03-20T03:42:50.723Z,101549.16
2023-03-20T03:45:24.620Z,101555.63
2023-03-20T03:47:57.925Z,101565.69
2023-03-20T03:50:30.936Z,101575.00
2023-03-20T03:53:05.945Z,101565.78
2023-03-20T03:55:40.583Z,101568.66
2023-03-20T03:58:15.980Z,101567.78
2023-03-20T04:00:47.968Z,101569.78
2023-03-20T04:03:17.011Z,101572.63
2023-03-20T04:05:47.372Z,101564.31
2023-03-20T04:08:16.430Z,101567.03
2023-03-20T04:10:45.614Z,101567.91
2023-03-20T04:13:13.468Z,101569.88
2023-03-20T04:15:41.636Z,101574.38
2023-03-20T04:18:15.579Z,101573.50
2023-03-20T04:20:44.452Z,101565.28
2023-03-20T04:23:12.246Z,101561.75
2023-03-20T04:25:40.487Z,101552.66
2023-03-20T04:28:11.601Z,101555.41
2023-03-20T04:30:56.282Z,101551.78
2023-03-20T04:33:36.015Z,101540.22
2023-03-20T04:36:21.748Z,101539.34
2023-03-20T04:38:51.008Z,101544.81
2023-03-20T04:41:21.171Z,101554.03
2023-03-20T04:43:54.297Z,101543.06
2023-03-20T04:46:23.210Z,101554.13
2023-03-20T04:48:51.243Z,101547.78
2023-03-20T04:51:20.049Z,101552.38
2023-03-20T04:53:52.409Z,101549.88
2023-03-20T04:56:20.299Z,101551.63
2023-03-20T04:58:49.973Z,101546.16
2023-03-20T05:01:23.276Z,101540.66
2023-03-20T05:03:52.081Z,101536.31
2023-03-20T05:06:19.947Z,101532.72
2023-03-20T05:08:48.022Z,101539.06
2023-03-20T05:11:18.890Z,101537.41
2023-03-20T05:14:06.788Z,101541.25
2023-03-20T05:17:14.151Z,101540.38
2023-03-20T05:20:00.464Z,101537.91
2023-03-20T05:22:50.291Z,101531.44
2023-03-20T05:25:35.064Z,101539.09
2023-03-20T05:28:23.336Z,101541.94
2023-03-20T05:31:11.981Z,101550.25
2023-03-20T05:34:05.329Z,101550.25
2023-03-20T05:36:56.673Z,101545.16
2023-03-20T05:39:32.014Z,101556.88
2023-03-20T05:42:13.598Z,101551.50
2023-03-20T05:44:59.793Z,101545.25
2023-03-20T05:47:42.899Z,101551.69
2023-03-20T05:50:26.173Z,101552.84
2023-03-20T05:53:07.420Z,101552.94
2023-03-20T05:56:01.409Z,101548.34
2023-03-20T05:58:42.275Z,101553.84
2023-03-20T06:01:28.545Z,101551.19
2023-03-20T06:04:12.364Z,101558.53
2023-03-20T06:07:07.585Z,101551.31
2023-03-20T06:09:37.043Z,101551.31
2023-03-20T06:12:09.933Z,101555.03
2023-03-20T06:14:38.546Z,101549.56
2023-03-20T06:17:08.961Z,101555.91
2023-03-20T06:19:36.821Z,101560.50
2023-03-20T06:22:04.644Z,101555.78
2023-03-20T06:24:35.415Z,101552.06
2023-03-20T06:27:03.387Z,101549.44
2023-03-20T06:29:31.326Z,101550.31
2023-03-20T06:32:12.331Z,101547.59
2023-03-20T06:34:40.168Z,101549.44
2023-03-20T06:37:08.559Z,101553.94
2023-03-20T06:39:37.874Z,101554.72
2023-03-20T06:42:07.755Z,101553.84
2023-03-20T06:44:37.358Z,101552.94
2023-03-20T06:47:15.706Z,101560.28
2023-03-20T06:49:45.897Z,101561.16
2023-03-20T06:52:17.577Z,101574.72
2023-03-20T06:54:52.184Z,101578.44
2023-03-20T06:57:20.411Z,101589.50
2023-03-20T06:59:48.294Z,101591.34
2023-03-20T07:02:16.289Z,101603.16
2023-03-20T07:04:44.561Z,101599.56
2023-03-20T07:07:12.695Z,101600.44
2023-03-20T07:09:42.294Z,101594.97
2023-03-20T07:12:15.023Z,101602.09
2023-03-20T07:14:44.175Z,101604.03
2023-03-20T07:17:16.810Z,101616.84
2023-03-20T07:19:45.247Z,101619.47
2023-03-20T07:22:22.596Z,101615.50
2023-03-20T07:24:51.893Z,101611.16
2023-03-20T07:27:23.249Z,101620.97
2023-03-20T07:29:54.849Z,101621.09
2023-03-20T07:32:24.119Z,101628.31
2023-03-20T07:34:53.385Z,101621.84
2023-03-20T07:37:21.702Z,101614.63
2023-03-20T07:39:58.893Z,101621.84
2023-03-20T07:42:32.558Z,101620.09
2023-03-20T07:45:09.360Z,101622.72
2023-03-20T07:47:37.496Z,101620.88
2023-03-20T07:50:08.289Z,101628.09
2023-03-20T07:52:36.587Z,101620.75
2023-03-20T07:55:04.857Z,101620.75
2023-03-20T07:57:34.604Z,101627.00
2023-03-20T08:00:08.848Z,101629.75
2023-03-20T08:02:42.341Z,101629.84
2023-03-20T08:05:10.811Z,101639.81
2023-03-20T08:07:38.776Z,101631.59
2023-03-20T08:10:07.484Z,101638.81
2023-03-20T08:12:36.956Z,101640.53
2023-03-20T08:15:05.674Z,101634.22
2023-03-20T08:17:33.533Z,101633.34
2023-03-20T08:20:01.753Z,101637.94
2023-03-20T08:22:29.505Z,101637.81
2023-03-20T08:24:57.336Z,101637.81
2023-03-20T08:27:25.498Z,101642.28
2023-03-20T08:29:54.828Z,101645.78
2023-03-20T08:32:22.550Z,101642.19
2023-03-20T08:34:50.490Z,101648.44
2023-03-20T08:37:19.742Z,101648.44
2023-03-20T08:39:47.882Z,101641.97
2023-03-20T08:42:16.316Z,101646.47
2023-03-20T08:44:45.051Z,101649.19
2023-03-20T08:47:14.171Z,101644.25
2023-03-20T08:49:43.199Z,101649.72
2023-03-20T08:52:11.164Z,101647.75
2023-03-20T08:54:39.087Z,101642.16
2023-03-20T08:57:07.040Z,101634.69
2023-03-20T08:59:34.868Z,101640.06
2023-03-20T09:02:02.720Z,101640.81
2023-03-20T09:04:32.008Z,101643.34
2023-03-20T09:07:01.260Z,101642.56
2023-03-20T09:09:29.507Z,101642.47
2023-03-20T09:11:57.895Z,101654.41
2023-03-20T09:14:26.840Z,101662.63
2023-03-20T09:16:54.931Z,101668.19
2023-03-20T09:19:23.004Z,101658.22
2023-03-20T09:21:52.162Z,101649.03
2023-03-20T09:24:19.967Z,101651.88
2023-03-20T09:26:47.864Z,101641.91
2023-03-20T09:29:15.807Z,101640.94
2023-03-20T09:31:44.399Z,101645.63
2023-03-20T09:34:12.554Z,101646.50
2023-03-20T09:36:40.854Z,101643.78
2023-03-20T09:39:10.100Z,101655.38
2023-03-20T09:41:53.150Z,101647.28
2023-03-20T09:44:40.375Z,101650.78
2023-03-20T09:47:20.943Z,101649.91
2023-03-20T09:50:00.249Z,101643.66
2023-03-20T09:52:32.114Z,101647.28
2023-03-20T09:55:08.063Z,101642.78
2023-03-20T09:57:40.706Z,101636.34
2023-03-20T10:00:13.950Z,101651.88
2023-03-20T10:02:49.076Z,101638.84
2023-03-20T10:05:24.223Z,101644.09
2023-03-20T10:07:53.650Z,101647.59
2023-03-20T10:10:28.779Z,101650.31
2023-03-20T10:13:07.203Z,101650.13
2023-03-20T10:15:44.751Z,101651.88
2023-03-20T10:18:21.672Z,101649.16
2023-03-20T10:20:56.683Z,101656.38
2023-03-20T10:23:34.678Z,101650.03
2023-03-20T10:26:11.899Z,101649.88
2023-03-20T10:28:45.713Z,101640.78
2023-03-20T10:31:33.336Z,101647.91
2023-03-20T10:34:15.106Z,101642.34
2023-03-20T10:36:55.850Z,101643.22
2023-03-20T10:39:36.093Z,101645.94
2023-03-20T10:42:14.830Z,101654.94
2023-03-20T10:44:48.384Z,101635.09
2023-03-20T10:47:20.040Z,101640.69
2023-03-20T10:49:51.825Z,101640.78
2023-03-20T10:52:23.610Z,101640.06
2023-03-20T10:54:56.598Z,101630.09
2023-03-20T10:57:26.314Z,101635.72
2023-03-20T10:59:57.083Z,101632.41
2023-03-20T11:02:29.980Z,101633.03
2023-03-20T11:04:58.058Z,101636.97
2023-03-20T11:07:28.588Z,101636.13
2023-03-20T11:10:16.577Z,101626.78
2023-03-20T11:12:48.387Z,101629.53
2023-03-20T11:15:22.310Z,101630.41
2023-03-20T11:17:58.288Z,101620.44
2023-03-20T11:20:27.950Z,101627.03
2023-03-20T11:23:00.608Z,101621.56
2023-03-20T11:25:35.462Z,101619.91
2023-03-20T11:28:39.072Z,101610.53
2023-03-20T11:31:16.570Z,101609.34
2023-03-20T11:33:46.238Z,101608.47
2023-03-20T11:36:24.343Z,101610.06
2023-03-20T11:38:54.471Z,101607.47
2023-03-20T11:41:27.429Z,101605.47
2023-03-20T11:43:56.773Z,101603.72
2023-03-20T11:46:25.998Z,101600.97
2023-03-20T11:49:06.957Z,101605.38
2023-03-20T11:51:38.176Z,101605.63
2023-03-20T11:54:09.025Z,101602.88
2023-03-20T11:56:37.751Z,101605.63
2023-03-20T11:59:15.818Z,101615.53
2023-03-20T12:01:47.232Z,101612.06
2023-03-20T12:04:17.352Z,101612.06
2023-03-20T12:06:54.975Z,101606.34
2023-03-20T12:09:32.801Z,101609.97
2023-03-20T12:12:03.707Z,101607.47
2023-03-20T12:14:39.849Z,101606.34
2023-03-20T12:17:31.372Z,101609.09
2023-03-20T12:20:04.812Z,101603.84
2023-03-20T12:22:37.434Z,101604.75
2023-03-20T12:25:17.807Z,101606.69
2023-03-20T12:27:51.455Z,101603.97
2023-03-20T12:30:29.484Z,101601.13
2023-03-20T12:33:03.941Z,101595.75
2023-03-20T12:35:34.686Z,101598.50
2023-03-20T12:38:02.771Z,101594.88
2023-03-20T12:40:45.465Z,101588.31
2023-03-20T12:43:16.346Z,101587.66
2023-03-20T12:45:55.744Z,101583.81
2023-03-20T12:48:55.498Z,101581.19
2023-03-20T12:51:32.252Z,101573.97
2023-03-20T12:54:15.166Z,101573.75
2023-03-20T12:57:00.238Z,101574.75
2023-03-20T12:59:36.468Z,101569.16
2023-03-20T13:02:20.074Z,101577.00
2023-03-20T13:05:10.409Z,101568.81
2023-03-20T13:07:53.962Z,101557.75
2023-03-20T13:10:23.515Z,101549.66
2023-03-20T13:13:05.480Z,101561.34
2023-03-20T13:15:46.808Z,101555.00
2023-03-20T13:18:22.189Z,101554.03
2023-03-20T13:20:53.014Z,101554.03
2023-03-20T13:23:30.270Z,101549.28
2023-03-20T13:26:09.623Z,101557.50
2023-03-20T13:28:43.935Z,101535.75
2023-03-20T13:31:22.044Z,101541.94
2023-03-20T13:33:56.862Z,101537.34
2023-03-20T13:36:49.925Z,101540.97
2023-03-20T13:39:23.829Z,101532.75
2023-03-20T13:41:53.478Z,101525.31
2023-03-20T13:44:27.823Z,101537.91
2023-03-20T13:47:01.069Z,101526.97
2023-03-20T13:49:37.576Z,101523.09
2023-03-20T13:52:14.422Z,101523.88
2023-03-20T13:55:00.899Z,101531.97
2023-03-20T13:57:49.530Z,101534.69
2023-03-20T14:00:28.844Z,101526.38
2023-03-20T14:03:19.228Z,101520.91
2023-03-20T14:05:48.865Z,101516.31
2023-03-20T14:08:32.333Z,101520.66
2023-03-20T14:11:32.543Z,101530.75
2023-03-20T14:14:08.902Z,101521.66
2023-03-20T14:16:37.160Z,101517.06
2023-03-20T14:19:17.425Z,101525.91
2023-03-20T14:21:48.721Z,101515.94
2023-03-20T14:24:19.642Z,101525.91
2023-03-20T14:26:51.155Z,101504.88
2023-03-20T14:29:38.297Z,101506.63
2023-03-20T14:32:32.813Z,101497.53
2023-03-20T14:35:20.344Z,101500.28
2023-03-20T14:38:06.782Z,101495.44
2023-03-20T14:40:40.430Z,101485.47
2023-03-20T14:43:18.944Z,101485.34
2023-03-20T14:45:53.146Z,101494.41
2023-03-20T14:48:31.989Z,101492.44
2023-03-20T14:51:20.773Z,101486.09
2023-03-20T14:53:57.033Z,101486.97
2023-03-20T14:56:34.284Z,101482.25
2023-03-20T14:59:05.511Z,101495.19
2023-03-20T15:01:58.414Z,101490.69
2023-03-20T15:04:33.912Z,101488.72
2023-03-20T15:07:04.586Z,101484.13
2023-03-20T15:09:38.842Z,101483.00
2023-03-20T15:12:07.469Z,101486.84
2023-03-20T15:14:42.438Z,101472.94
2023-03-20T15:17:19.951Z,101481.16
2023-03-20T15:19:50.312Z,101482.13
2023-03-20T15:22:20.304Z,101480.28
2023-03-20T15:24:57.851Z,101478.25
2023-03-20T15:27:29.772Z,101464.72
2023-03-20T15:29:58.809Z,101472.16
2023-03-20T15:32:26.840Z,101473.03
2023-03-20T15:34:54.926Z,101463.84
2023-03-20T15:37:25.957Z,101466.44
2023-03-20T15:39:59.195Z,101461.09
2023-03-20T15:42:28.005Z,101453.75
2023-03-20T15:44:57.017Z,101445.41
2023-03-20T15:47:26.235Z,101448.13
2023-03-20T15:49:56.841Z,101438.94
2023-03-20T15:52:32.424Z,101437.06
2023-03-20T15:55:06.196Z,101438.81
2023-03-20T15:57:37.500Z,101427.00
2023-03-20T16:00:09.146Z,101429.63
2023-03-20T16:02:38.370Z,101426.00
2023-03-20T16:05:13.521Z,101418.53
2023-03-20T16:07:42.225Z,101416.03
2023-03-20T16:10:23.085Z,101413.94
2023-03-20T16:12:54.478Z,101419.53
2023-03-20T16:15:25.611Z,101412.19
2023-03-20T16:17:56.229Z,101408.47
2023-03-20T16:20:27.832Z,101413.94
2023-03-20T16:23:01.166Z,101418.53
2023-03-20T16:25:30.661Z,101421.16
2023-03-20T16:27:59.805Z,101424.78
2023-03-20T16:30:32.635Z,101421.16
2023-03-20T16:33:02.772Z,101426.88
2023-03-20T16:35:35.008Z,101425.78
2023-03-20T16:38:04.377Z,101424.13
2023-03-20T16:40:35.747Z,101422.16
2023-03-20T16:43:08.582Z,101421.41
2023-03-20T16:45:37.411Z,101418.03
2023-03-20T16:48:32.166Z,101426.22
2023-03-20T16:51:11.521Z,101414.41
2023-03-20T16:53:45.651Z,101409.97
2023-03-20T16:56:17.849Z,101410.06
2023-03-20T16:58:46.855Z,101417.53
2023-03-20T17:01:20.123Z,101407.34
2023-03-20T17:03:52.262Z,101408.31
2023-03-20T17:06:39.459Z,101412.16
2023-03-20T17:09:20.852Z,101412.94
2023-03-20T17:11:52.751Z,101411.19
2023-03-20T17:14:20.787Z,101414.16
2023-03-20T17:16:48.841Z,101416.78
2023-03-20T17:19:18.665Z,101417.53
2023-03-20T17:21:47.703Z,101417.66
2023-03-20T17:24:17.012Z,101424.00
2023-03-20T17:26:48.512Z,101429.47
2023-03-20T17:29:17.745Z,101426.72
2023-03-20T17:31:46.034Z,101429.59
2023-03-20T17:34:15.800Z,101430.47
2023-03-20T17:36:43.865Z,101423.22
2023-03-20T17:39:18.882Z,101432.22
2023-03-20T17:41:47.474Z,101430.56
2023-03-20T17:44:16.836Z,101429.72
2023-03-20T17:46:57.367Z,101438.94
2023-03-20T17:49:28.012Z,101438.94
2023-03-20T17:51:56.448Z,101437.19
2023-03-20T17:54:24.365Z,101432.59
2023-03-20T17:56:52.191Z,101437.19
2023-03-20T17:59:21.471Z,101433.47
2023-03-20T18:01:49.366Z,101434.44
2023-03-20T18:04:17.264Z,101437.31
2023-03-20T18:06:47.094Z,101439.06
2023-03-20T18:09:16.058Z,101435.44
2023-03-20T18:11:44.044Z,101444.75
2023-03-20T18:14:12.407Z,101443.66
2023-03-20T18:16:41.929Z,101440.91
2023-03-20T18:19:15.843Z,101437.19
2023-03-20T18:21:43.812Z,101430.94
2023-03-20T18:24:11.698Z,101430.94
2023-03-20T18:26:39.691Z,101433.69
2023-03-20T18:29:07.636Z,101430.94
2023-03-20T18:31:35.652Z,101431.94
2023-03-20T18:34:05.277Z,101431.81
2023-03-20T18:36:33.494Z,101433.69
2023-03-20T18:39:01.491Z,101442.88
2023-03-20T18:41:29.597Z,101434.69
2023-03-20T18:43:57.682Z,101432.81
2023-03-20T18:46:27.083Z,101434.56
2023-03-20T18:48:55.682Z,101431.94
2023-03-20T18:51:25.962Z,101434.56
2023-03-20T18:53:54.045Z,101441.16
2023-03-20T18:56:25.343Z,101439.16
2023-03-20T18:58:54.350Z,101439.16
2023-03-20T19:01:22.627Z,101450.22
2023-03-20T19:03:53.673Z,101437.41
2023-03-20T19:06:23.744Z,101437.41
2023-03-20T19:08:53.698Z,101441.91
2023-03-20T19:11:22.059Z,101437.53
2023-03-20T19:13:52.245Z,101439.28
2023-03-20T19:16:25.600Z,101456.47
2023-03-20T19:18:54.743Z,101450.22
2023-03-20T19:21:26.166Z,101442.88
2023-03-20T19:23:56.943Z,101441.03
2023-03-20T19:26:27.063Z,101437.41
2023-03-20T19:28:56.325Z,101438.41
2023-03-20T19:31:25.035Z,101436.66
2023-03-20T19:33:53.167Z,101433.91
2023-03-20T19:36:25.118Z,101433.81
2023-03-20T19:38:53.020Z,101426.84
2023-03-20T19:41:22.276Z,101425.72
2023-03-20T19:43:54.043Z,101429.47
2023-03-20T19:46:39.275Z,101418.53
2023-03-20T19:49:10.948Z,101424.97
2023-03-20T19:51:38.938Z,101414.03
2023-03-20T19:54:07.437Z,101414.03
2023-03-20T19:56:36.902Z,101409.44
2023-03-20T19:59:06.106Z,101405.81
2023-03-20T20:01:34.226Z,101408.56
2023-03-20T20:04:02.145Z,101398.59
2023-03-20T20:06:32.599Z,101403.19
2023-03-20T20:09:01.009Z,101405.06
2023-03-20T20:11:29.329Z,101403.31
2023-03-20T20:14:08.478Z,101403.19
2023-03-20T20:16:39.597Z,101403.31
2023-03-20T20:19:08.047Z,101403.44
2023-03-20T20:22:19.429Z,101405.19
2023-03-20T20:24:24.323Z,101401.69
2023-03-20T20:26:59.670Z,101395.22
2023-03-20T20:29:32.714Z,101397.97
2023-03-20T20:32:01.390Z,101398.94
2023-03-20T20:40:07.263Z,101400.81
2023-03-20T20:42:37.022Z,101403.53
2023-03-20T20:45:08.454Z,101400.69
2023-03-20T20:47:36.646Z,101403.69
2023-03-20T20:50:05.371Z,101408.16
2023-03-20T20:52:39.176Z,101403.53
2023-03-20T20:55:22.188Z,101402.66
2023-03-20T20:57:51.764Z,101402.94
2023-03-20T21:00:27.447Z,101399.94
2023-03-20T21:02:57.640Z,101393.72
2023-03-20T21:05:26.962Z,101400.09
2023-03-20T21:07:54.799Z,101392.84
2023-03-20T21:10:23.243Z,101391.00
2023-03-20T21:12:59.103Z,101393.72
2023-03-20T21:15:28.933Z,101395.47
2023-03-20T21:18:01.741Z,101395.59
2023-03-20T21:20:30.455Z,101400.09
2023-03-20T21:22:58.311Z,101396.47
2023-03-20T21:25:39.242Z,101394.59
2023-03-20T21:28:08.755Z,101395.69
2023-03-20T21:30:44.247Z,101401.84
2023-03-20T21:33:18.942Z,101394.81
2023-03-20T21:35:46.935Z,101400.19
2023-03-20T21:39:01.884Z,101399.22
2023-03-20T21:41:09.077Z,101402.66
2023-03-20T21:43:36.937Z,101396.47
2023-03-20T21:57:55.796Z,101392.84
2023-03-20T22:03:01.599Z,101394.72
2023-03-20T22:14:56.859Z,101391.31
2023-03-20T22:20:27.536Z,101403.13
2023-03-20T22:25:56.032Z,101405.09
2023-03-20T22:34:24.128Z,101403.25
2023-03-20T22:37:27.696Z,101406.75
2023-03-20T22:42:49.080Z,101405.09
2023-03-20T22:45:01.775Z,101399.63
2023-03-20T22:47:32.388Z,101394.91
2023-03-20T22:50:00.336Z,101395.91
2023-03-20T22:52:42.019Z,101392.06
2023-03-20T22:55:17.001Z,101392.19
2023-03-20T22:57:56.181Z,101394.03
2023-03-20T23:00:31.783Z,101385.84
2023-03-20T23:03:13.673Z,101385.72
2023-03-20T23:05:43.765Z,101375.88
2023-03-20T23:08:13.314Z,101380.25
2023-03-20T23:10:44.405Z,101371.16
2023-03-20T23:13:12.499Z,101381.25
2023-03-20T23:15:40.365Z,101383.09
2023-03-20T23:18:09.524Z,101370.41
2023-03-20T23:20:37.553Z,101371.28
2023-03-20T23:23:05.675Z,101363.94
2023-03-20T23:25:41.851Z,101364.69
2023-03-20T23:28:10.950Z,101367.56
2023-03-20T23:30:48.082Z,101364.81
2023-03-20T23:33:19.742Z,101358.59
2023-03-20T23:35:48.804Z,101363.94
2023-03-20T23:38:17.570Z,101359.47
2023-03-20T23:40:51.394Z,101360.22
2023-03-20T23:43:19.538Z,101359.47
2023-03-20T23:45:47.861Z,101346.66
2023-03-20T23:48:15.970Z,101352.13
2023-03-20T23:50:52.700Z,101347.63
2023-03-20T23:53:22.063Z,101348.66
2023-03-20T23:55:53.686Z,101348.41
2023-03-20T23:58:23.422Z,101342.06
